createdAt,value
2018-07-28T00:00:25.787Z,100463.00
2018-07-28T00:02:55.094Z,100464.00
2018-07-28T00:05:24.305Z,100461.00
2018-07-28T00:07:53.594Z,100457.00
2018-07-28T00:10:22.739Z,100450.00
2018-07-28T00:12:51.847Z,100435.00
2018-07-28T00:15:20.912Z,100451.00
2018-07-28T00:17:49.929Z,100442.00
2018-07-28T00:20:18.982Z,100439.00
2018-07-28T00:22:48.077Z,100438.00
2018-07-28T00:25:17.173Z,100431.00
2018-07-28T00:27:46.236Z,100428.00
2018-07-28T00:30:15.316Z,100433.00
2018-07-28T00:32:44.351Z,100429.00
2018-07-28T00:35:13.414Z,100422.00
2018-07-28T00:37:42.459Z,100429.00
2018-07-28T00:40:11.535Z,100421.00
2018-07-28T00:42:40.827Z,100417.00
2018-07-28T00:45:09.885Z,100418.00
2018-07-28T00:47:38.997Z,100407.00
2018-07-28T00:50:09.200Z,100410.00
2018-07-28T00:52:38.387Z,100397.00
2018-07-28T00:55:08.037Z,100402.00
2018-07-28T00:57:37.155Z,100396.00
2018-07-28T01:00:08.050Z,100387.00
2018-07-28T01:02:37.249Z,100384.00
2018-07-28T01:05:07.340Z,100377.00
2018-07-28T01:07:36.594Z,100374.00
2018-07-28T01:10:06.370Z,100376.00
2018-07-28T01:12:35.472Z,100377.00
2018-07-28T01:15:07.698Z,100364.00
2018-07-28T01:17:37.206Z,100364.00
2018-07-28T01:20:07.732Z,100369.00
2018-07-28T01:22:37.164Z,100354.00
2018-07-28T01:25:08.252Z,100357.00
2018-07-28T01:27:37.279Z,100355.00
2018-07-28T01:30:11.824Z,100353.00
2018-07-28T01:32:41.006Z,100347.00
2018-07-28T01:35:10.302Z,100346.00
2018-07-28T01:37:39.537Z,100340.00
2018-07-28T01:40:08.731Z,100335.00
2018-07-28T01:42:37.877Z,100342.00
2018-07-28T01:45:08.527Z,100339.00
2018-07-28T01:47:37.775Z,100339.00
2018-07-28T01:50:08.699Z,100337.00
2018-07-28T01:52:37.791Z,100335.00
2018-07-28T01:55:06.996Z,100330.00
2018-07-28T01:57:36.205Z,100320.00
2018-07-28T02:00:06.964Z,100316.00
2018-07-28T02:02:36.063Z,100312.00
2018-07-28T02:05:07.155Z,100305.00
2018-07-28T02:07:36.211Z,100302.00
2018-07-28T02:10:05.488Z,100298.00
2018-07-28T02:12:34.524Z,100297.00
2018-07-28T02:15:03.590Z,100292.00
2018-07-28T02:17:32.607Z,100288.00
2018-07-28T02:20:01.653Z,100288.00
2018-07-28T02:22:30.679Z,100285.00
2018-07-28T02:24:59.786Z,100276.00
2018-07-28T02:27:28.841Z,100275.00
2018-07-28T02:29:57.966Z,100275.00
2018-07-28T02:32:27.009Z,100277.00
2018-07-28T02:34:56.096Z,100269.00
2018-07-28T02:37:25.150Z,100274.00
2018-07-28T02:39:54.200Z,100270.00
2018-07-28T02:42:23.361Z,100268.00
2018-07-28T02:44:52.663Z,100275.00
2018-07-28T02:47:21.791Z,100265.00
2018-07-28T02:49:50.911Z,100258.00
2018-07-28T02:52:20.118Z,100263.00
2018-07-28T02:54:49.848Z,100255.00
2018-07-28T02:57:19.949Z,100246.00
2018-07-28T02:59:49.064Z,100243.00
2018-07-28T03:02:18.289Z,100242.00
2018-07-28T03:04:47.353Z,100237.00
2018-07-28T03:07:16.432Z,100237.00
2018-07-28T03:09:45.577Z,100237.00
2018-07-28T03:12:14.639Z,100230.00
2018-07-28T03:14:43.717Z,100235.00
2018-07-28T03:17:12.767Z,100227.00
2018-07-28T03:19:41.827Z,100232.00
2018-07-28T03:22:10.875Z,100231.00
2018-07-28T03:24:40.067Z,100230.00
2018-07-28T03:27:09.187Z,100230.00
2018-07-28T03:29:38.249Z,100230.00
2018-07-28T03:32:07.392Z,100234.00
2018-07-28T03:34:36.468Z,100231.00
2018-07-28T03:37:05.724Z,100223.00
2018-07-28T03:39:34.795Z,100229.00
2018-07-28T03:42:03.851Z,100219.00
2018-07-28T03:44:32.896Z,100209.00
2018-07-28T03:47:01.905Z,100206.00
2018-07-28T03:49:31.084Z,100211.00
2018-07-28T03:52:00.196Z,100206.00
2018-07-28T03:54:29.313Z,100211.00
2018-07-28T03:56:58.764Z,100209.00
2018-07-28T03:59:27.818Z,100208.00
2018-07-28T04:01:56.908Z,100200.00
2018-07-28T04:04:26.032Z,100198.00
2018-07-28T04:06:55.084Z,100196.00
2018-07-28T04:09:25.594Z,100199.00
2018-07-28T04:11:54.687Z,100191.00
2018-07-28T04:14:23.567Z,100189.00
2018-07-28T04:16:52.619Z,100183.00
2018-07-28T04:19:21.646Z,100182.00
2018-07-28T04:21:50.658Z,100174.00
2018-07-28T04:24:19.669Z,100172.00
2018-07-28T04:26:48.721Z,100177.00
2018-07-28T04:29:17.809Z,100171.00
2018-07-28T04:31:46.894Z,100164.00
2018-07-28T04:34:15.929Z,100167.00
2018-07-28T04:36:45.101Z,100161.00
2018-07-28T04:39:14.279Z,100159.00
2018-07-28T04:41:43.556Z,100161.00
2018-07-28T04:44:12.634Z,100160.00
2018-07-28T04:46:41.736Z,100149.00
2018-07-28T04:49:10.899Z,100155.00
2018-07-28T04:51:45.606Z,100158.00
2018-07-28T04:54:14.700Z,100152.00
2018-07-28T04:56:43.760Z,100154.00
2018-07-28T04:59:12.879Z,100158.00
2018-07-28T05:01:42.006Z,100148.00
2018-07-28T05:04:11.102Z,100148.00
2018-07-28T05:06:41.123Z,100146.00
2018-07-28T05:09:10.859Z,100144.00
2018-07-28T05:11:40.075Z,100143.00
2018-07-28T05:14:09.157Z,100141.00
2018-07-28T05:16:38.231Z,100133.00
2018-07-28T05:19:07.301Z,100131.00
2018-07-28T05:21:36.536Z,100133.00
2018-07-28T05:24:05.910Z,100141.00
2018-07-28T05:26:34.976Z,100136.00
2018-07-28T05:29:04.084Z,100134.00
2018-07-28T05:31:33.157Z,100125.00
2018-07-28T05:34:02.258Z,100125.00
2018-07-28T05:36:31.319Z,100122.00
2018-07-28T05:39:00.456Z,100114.00
2018-07-28T05:41:29.498Z,100103.00
2018-07-28T05:43:58.594Z,100104.00
2018-07-28T05:46:27.657Z,100111.00
2018-07-28T05:48:56.745Z,100106.00
2018-07-28T05:51:25.842Z,100102.00
2018-07-28T05:53:54.955Z,100108.00
2018-07-28T05:56:24.001Z,100101.00
2018-07-28T05:58:53.072Z,100099.00
2018-07-28T06:01:22.168Z,100090.00
2018-07-28T06:03:51.413Z,100094.00
2018-07-28T06:06:20.544Z,100101.00
2018-07-28T06:08:49.664Z,100092.00
2018-07-28T06:11:18.716Z,100095.00
2018-07-28T06:13:47.812Z,100090.00
2018-07-28T06:16:16.900Z,100087.00
2018-07-28T06:18:46.094Z,100090.00
2018-07-28T06:21:15.118Z,100084.00
2018-07-28T06:23:44.200Z,100082.00
2018-07-28T06:26:13.312Z,100074.00
2018-07-28T06:28:42.400Z,100075.00
2018-07-28T06:31:11.545Z,100070.00
2018-07-28T06:33:40.774Z,100075.00
2018-07-28T06:36:09.840Z,100086.00
2018-07-28T06:38:38.881Z,100081.00
2018-07-28T06:41:07.981Z,100069.00
2018-07-28T06:43:37.044Z,100076.00
2018-07-28T06:46:06.103Z,100077.00
2018-07-28T06:48:35.196Z,100065.00
2018-07-28T06:51:04.261Z,100067.00
2018-07-28T06:53:33.387Z,100067.00
2018-07-28T06:56:03.138Z,100038.00
2018-07-28T06:58:32.246Z,100077.00
2018-07-28T07:01:01.335Z,100067.00
2018-07-28T07:03:30.485Z,100070.00
2018-07-28T07:05:59.750Z,100081.00
2018-07-28T07:08:28.928Z,100080.00
2018-07-28T07:10:58.022Z,100073.00
2018-07-28T07:13:27.058Z,100076.00
2018-07-28T07:15:56.126Z,100068.00
2018-07-28T07:18:25.176Z,100074.00
2018-07-28T07:20:54.258Z,100069.00
2018-07-28T07:23:23.309Z,100069.00
2018-07-28T07:25:52.390Z,100078.00
2018-07-28T07:28:21.674Z,100070.00
2018-07-28T07:30:50.776Z,100063.00
2018-07-28T07:33:19.882Z,100061.00
2018-07-28T07:35:48.968Z,100054.00
2018-07-28T07:38:18.031Z,100051.00
2018-07-28T07:40:50.843Z,100043.00
2018-07-28T07:43:19.972Z,100042.00
2018-07-28T07:45:49.023Z,100029.00
2018-07-28T07:48:18.199Z,100034.00
2018-07-28T07:50:47.451Z,100023.00
2018-07-28T07:53:16.647Z,100034.00
2018-07-28T07:55:45.761Z,100021.00
2018-07-28T07:58:14.826Z,100011.00
2018-07-28T08:00:43.898Z,100018.00
2018-07-28T08:03:13.286Z,100020.00
2018-07-28T08:05:42.438Z,100023.00
2018-07-28T08:08:11.649Z,100017.00
2018-07-28T08:10:40.830Z,100008.00
2018-07-28T08:13:10.313Z,100002.00
2018-07-28T08:15:40.506Z,100005.00
2018-07-28T08:18:09.794Z,100007.00
2018-07-28T08:20:39.601Z,100004.00
2018-07-28T08:23:08.686Z,100007.00
2018-07-28T08:25:37.788Z,99997.00
2018-07-28T08:28:06.840Z,99996.00
2018-07-28T08:30:36.021Z,99987.00
2018-07-28T08:33:05.298Z,99983.00
2018-07-28T08:35:34.414Z,99979.00
2018-07-28T08:38:03.571Z,99985.00
2018-07-28T08:40:32.416Z,99988.00
2018-07-28T08:43:01.526Z,99999.00
2018-07-28T08:45:30.777Z,100005.00
2018-07-28T08:47:59.850Z,100005.00
2018-07-28T08:50:28.922Z,100005.00
2018-07-28T08:52:58.196Z,100010.00
2018-07-28T08:55:27.398Z,100007.00
2018-07-28T08:57:57.060Z,100013.00
2018-07-28T09:00:26.621Z,100005.00
2018-07-28T09:02:55.730Z,100006.00
2018-07-28T09:05:25.134Z,100008.00
2018-07-28T09:07:54.502Z,100012.00
2018-07-28T09:10:23.919Z,100009.00
2018-07-28T09:12:53.298Z,100010.00
2018-07-28T09:15:22.769Z,100005.00
2018-07-28T09:17:52.067Z,100000.00
2018-07-28T09:20:21.368Z,99993.00
2018-07-28T09:22:50.844Z,99987.00
2018-07-28T09:25:19.981Z,99988.00
2018-07-28T09:27:49.101Z,99980.00
2018-07-28T09:30:18.035Z,99969.00
2018-07-28T09:32:47.117Z,99972.00
2018-07-28T09:35:16.203Z,99977.00
2018-07-28T09:37:45.288Z,99969.00
2018-07-28T09:40:14.402Z,99966.00
2018-07-28T09:42:43.564Z,99966.00
2018-07-28T09:45:12.626Z,99952.00
2018-07-28T09:47:41.824Z,99943.00
2018-07-28T09:50:11.644Z,99939.00
2018-07-28T09:52:40.767Z,99941.00
2018-07-28T09:55:10.146Z,99948.00
2018-07-28T09:57:39.785Z,99937.00
2018-07-28T10:00:08.908Z,99944.00
2018-07-28T10:02:38.141Z,99933.00
2018-07-28T10:05:07.379Z,99941.00
2018-07-28T10:07:37.078Z,99937.00
2018-07-28T10:10:06.300Z,99927.00
2018-07-28T10:12:35.444Z,99928.00
2018-07-28T10:15:05.056Z,99928.00
2018-07-28T10:17:34.282Z,99922.00
2018-07-28T10:20:03.952Z,99918.00
2018-07-28T10:22:33.219Z,99920.00
2018-07-28T10:25:02.548Z,99910.00
2018-07-28T10:27:31.797Z,99903.00
2018-07-28T10:30:01.003Z,99894.00
2018-07-28T10:32:30.379Z,99895.00
2018-07-28T10:34:59.584Z,99895.00
2018-07-28T10:37:28.762Z,99898.00
2018-07-28T10:39:58.022Z,99898.00
2018-07-28T10:42:27.296Z,99892.00
2018-07-28T10:44:56.494Z,99889.00
2018-07-28T10:47:25.637Z,99896.00
2018-07-28T10:49:54.902Z,99896.00
2018-07-28T10:52:23.999Z,99895.00
2018-07-28T10:54:53.288Z,99898.00
2018-07-28T10:57:24.308Z,99888.00
2018-07-28T10:59:54.318Z,99881.00
2018-07-28T11:02:23.651Z,99880.00
2018-07-28T11:04:52.761Z,99875.00
2018-07-28T11:07:21.878Z,99875.00
2018-07-28T11:09:51.039Z,99874.00
2018-07-28T11:12:20.176Z,99851.00
2018-07-28T11:14:49.322Z,99878.00
2018-07-28T11:17:18.402Z,99881.00
2018-07-28T11:19:47.596Z,99879.00
2018-07-28T11:22:16.757Z,99880.00
2018-07-28T11:24:46.114Z,99872.00
2018-07-28T11:27:15.718Z,99873.00
2018-07-28T11:29:44.992Z,99863.00
2018-07-28T11:32:33.010Z,99874.00
2018-07-28T11:36:21.688Z,99865.00
2018-07-28T11:39:07.966Z,99859.00
2018-07-28T11:41:54.293Z,99839.00
2018-07-28T11:44:40.612Z,99863.00
2018-07-28T11:47:10.440Z,99851.00
2018-07-28T11:49:39.720Z,99845.00
2018-07-28T11:52:08.960Z,99848.00
2018-07-28T11:54:38.127Z,99837.00
2018-07-28T11:57:07.212Z,99830.00
2018-07-28T11:59:36.373Z,99836.00
2018-07-28T12:02:05.432Z,99834.00
2018-07-28T12:04:34.805Z,99821.00
2018-07-28T12:07:03.932Z,99812.00
2018-07-28T12:09:33.135Z,99809.00
2018-07-28T12:12:02.377Z,99801.00
2018-07-28T12:14:31.550Z,99800.00
2018-07-28T12:17:00.688Z,99794.00
2018-07-28T12:19:29.851Z,99781.00
2018-07-28T12:21:59.091Z,99778.00
2018-07-28T12:24:28.239Z,99782.00
2018-07-28T12:26:57.456Z,99785.00
2018-07-28T12:29:26.647Z,99780.00
2018-07-28T12:31:56.084Z,99767.00
2018-07-28T12:34:25.650Z,99777.00
2018-07-28T12:36:55.663Z,99765.00
2018-07-28T12:39:25.214Z,99769.00
2018-07-28T12:41:54.512Z,99770.00
2018-07-28T12:44:23.813Z,99748.00
2018-07-28T12:46:54.077Z,99752.00
2018-07-28T12:49:23.376Z,99736.00
2018-07-28T12:51:52.561Z,99737.00
2018-07-28T12:54:21.997Z,99745.00
2018-07-28T12:56:51.502Z,99750.00
2018-07-28T12:59:20.735Z,99754.00
2018-07-28T13:01:49.898Z,99748.00
2018-07-28T13:04:19.118Z,99754.00
2018-07-28T13:06:48.261Z,99742.00
2018-07-28T13:09:18.340Z,99743.00
2018-07-28T13:11:47.713Z,99753.00
2018-07-28T13:14:17.013Z,99754.00
2018-07-28T13:16:46.713Z,99754.00
2018-07-28T13:19:16.002Z,99756.00
2018-07-28T13:21:45.178Z,99772.00
2018-07-28T13:24:14.298Z,99769.00
2018-07-28T13:26:43.535Z,99761.00
2018-07-28T13:29:12.886Z,99761.00
2018-07-28T13:31:42.036Z,99762.00
2018-07-28T13:34:11.227Z,99778.00
2018-07-28T13:36:40.923Z,99784.00
2018-07-28T13:39:10.135Z,99792.00
2018-07-28T13:41:39.328Z,99808.00
2018-07-28T13:44:08.463Z,99903.00
2018-07-28T13:46:37.819Z,99941.00
2018-07-28T13:49:06.741Z,99950.00
2018-07-28T13:51:36.034Z,100008.00
2018-07-28T13:54:05.475Z,100034.00
2018-07-28T13:56:34.983Z,100028.00
2018-07-28T13:59:04.222Z,100034.00
2018-07-28T14:01:33.334Z,100023.00
2018-07-28T14:04:02.835Z,100029.00
2018-07-28T14:06:32.017Z,100015.00
2018-07-28T14:09:01.331Z,100004.00
2018-07-28T14:11:30.448Z,100014.00
2018-07-28T14:13:59.730Z,100024.00
2018-07-28T14:16:28.772Z,100024.00
2018-07-28T14:18:57.990Z,100042.00
2018-07-28T14:21:27.342Z,100043.00
2018-07-28T14:23:56.528Z,100053.00
2018-07-28T14:26:25.842Z,100066.00
2018-07-28T14:35:42.965Z,100069.00
2018-07-28T14:38:12.296Z,100089.00
2018-07-28T14:40:41.565Z,100094.00
2018-07-28T14:43:10.679Z,100082.00
2018-07-28T14:45:40.275Z,100070.00
2018-07-28T14:48:09.574Z,100068.00
2018-07-28T14:50:38.754Z,100069.00
2018-07-28T14:53:08.128Z,100053.00
2018-07-28T14:55:37.292Z,100049.00
2018-07-28T14:58:06.395Z,100052.00
2018-07-28T15:00:35.473Z,100042.00
2018-07-28T15:03:04.990Z,100048.00
2018-07-28T15:05:34.175Z,100037.00
2018-07-28T15:08:03.259Z,100031.00
2018-07-28T15:10:32.301Z,100026.00
2018-07-28T15:13:01.533Z,100030.00
2018-07-28T15:15:30.627Z,100024.00
2018-07-28T15:17:59.701Z,100022.00
2018-07-28T15:20:28.833Z,100017.00
2018-07-28T15:22:58.253Z,100012.00
2018-07-28T15:25:27.343Z,100012.00
2018-07-28T15:27:56.506Z,100018.00
2018-07-28T15:30:25.713Z,100015.00
2018-07-28T15:32:55.018Z,100026.00
2018-07-28T15:35:24.221Z,100034.00
2018-07-28T15:37:53.396Z,100029.00
2018-07-28T15:40:22.569Z,100035.00
2018-07-28T15:42:52.144Z,100027.00
2018-07-28T15:45:21.506Z,100030.00
2018-07-28T15:47:50.708Z,100020.00
2018-07-28T15:50:19.910Z,100024.00
2018-07-28T15:52:49.064Z,100023.00
2018-07-28T15:55:18.196Z,100056.00
2018-07-28T15:57:47.132Z,100054.00
2018-07-28T16:00:18.550Z,100037.00
2018-07-28T16:02:49.134Z,100035.00
2018-07-28T16:05:18.929Z,100050.00
2018-07-28T16:07:48.225Z,100043.00
2018-07-28T16:10:17.363Z,100041.00
2018-07-28T16:12:46.478Z,100044.00
2018-07-28T16:15:15.571Z,100054.00
2018-07-28T16:17:44.850Z,100065.00
2018-07-28T16:20:14.120Z,100065.00
2018-07-28T16:22:43.228Z,100075.00
2018-07-28T16:25:12.318Z,100086.00
2018-07-28T16:27:41.594Z,100104.00
2018-07-28T16:30:10.738Z,100106.00
2018-07-28T16:32:39.859Z,100123.00
2018-07-28T16:35:09.016Z,100118.00
2018-07-28T16:37:38.125Z,100118.00
2018-07-28T16:40:07.403Z,100115.00
2018-07-28T16:42:37.329Z,100113.00
2018-07-28T16:45:07.050Z,100121.00
2018-07-28T16:47:36.291Z,100126.00
2018-07-28T16:50:05.926Z,100124.00
2018-07-28T16:52:36.021Z,100127.00
2018-07-28T16:55:05.991Z,100124.00
2018-07-28T16:57:36.449Z,100128.00
2018-07-28T17:00:07.353Z,100123.00
2018-07-28T17:02:36.609Z,100126.00
2018-07-28T17:05:06.275Z,100139.00
2018-07-28T17:07:35.656Z,100140.00
2018-07-28T17:10:05.390Z,100147.00
2018-07-28T17:12:34.851Z,100145.00
2018-07-28T17:15:04.048Z,100146.00
2018-07-28T17:17:33.222Z,100144.00
2018-07-28T17:20:02.317Z,100167.00
2018-07-28T17:22:31.523Z,100165.00
2018-07-28T17:25:00.620Z,100172.00
2018-07-28T17:27:29.533Z,100179.00
2018-07-28T17:29:58.784Z,100172.00
2018-07-28T17:32:28.061Z,100164.00
2018-07-28T17:34:58.043Z,100178.00
2018-07-28T17:37:27.386Z,100180.00
2018-07-28T17:39:56.780Z,100194.00
2018-07-28T17:42:26.186Z,100198.00
2018-07-28T17:44:55.275Z,100194.00
2018-07-28T17:47:24.545Z,100190.00
2018-07-28T17:49:53.705Z,100210.00
2018-07-28T17:52:22.891Z,100213.00
2018-07-28T17:54:52.215Z,100212.00
2018-07-28T17:57:21.489Z,100213.00
2018-07-28T17:59:50.617Z,100209.00
2018-07-28T18:02:19.953Z,100216.00
2018-07-28T18:04:49.352Z,100240.00
2018-07-28T18:07:19.700Z,100262.00
2018-07-28T18:09:49.199Z,100268.00
2018-07-28T18:12:18.575Z,100277.00
2018-07-28T18:14:48.600Z,100277.00
2018-07-28T18:17:18.415Z,100291.00
2018-07-28T18:19:48.076Z,100292.00
2018-07-28T18:22:17.521Z,100301.00
2018-07-28T18:24:47.995Z,100321.00
2018-07-28T18:27:17.323Z,100339.00
2018-07-28T18:29:46.485Z,100358.00
2018-07-28T18:32:15.656Z,100358.00
2018-07-28T18:34:45.019Z,100341.00
2018-07-28T18:37:14.360Z,100332.00
2018-07-28T18:39:43.536Z,100322.00
2018-07-28T18:42:12.790Z,100318.00
2018-07-28T18:44:42.000Z,100297.00
2018-07-28T18:47:11.327Z,100288.00
2018-07-28T18:49:40.585Z,100276.00
2018-07-28T18:52:10.293Z,100267.00
2018-07-28T18:54:39.529Z,100277.00
2018-07-28T18:57:08.699Z,100265.00
2018-07-28T18:59:37.841Z,100248.00
2018-07-28T19:02:07.046Z,100249.00
2018-07-28T19:04:36.328Z,100241.00
2018-07-28T19:07:06.869Z,100270.00
2018-07-28T19:09:41.397Z,100281.00
2018-07-28T19:12:10.691Z,100283.00
2018-07-28T19:14:40.136Z,100281.00
2018-07-28T19:17:09.314Z,100280.00
2018-07-28T19:19:38.468Z,100286.00
2018-07-28T19:22:11.879Z,100293.00
2018-07-28T19:24:41.048Z,100297.00
2018-07-28T19:27:10.280Z,100308.00
2018-07-28T19:29:45.138Z,100304.00
2018-07-28T19:32:14.325Z,100309.00
2018-07-28T19:34:43.514Z,100298.00
2018-07-28T19:37:20.638Z,100318.00
2018-07-28T19:39:49.826Z,100313.00
2018-07-28T19:42:24.274Z,100310.00
2018-07-28T19:44:53.443Z,100317.00
2018-07-28T19:47:22.675Z,100315.00
2018-07-28T19:49:51.867Z,100321.00
2018-07-28T19:52:21.148Z,100346.00
2018-07-28T19:54:50.294Z,100348.00
2018-07-28T19:57:19.522Z,100354.00
2018-07-28T19:59:48.737Z,100370.00
2018-07-28T20:02:18.991Z,100381.00
2018-07-28T20:04:48.312Z,100385.00
2018-07-28T20:07:17.475Z,100386.00
2018-07-28T20:09:46.694Z,100401.00
2018-07-28T20:12:15.888Z,100413.00
2018-07-28T20:14:45.100Z,100401.00
2018-07-28T20:17:14.328Z,100406.00
2018-07-28T20:19:43.721Z,100406.00
2018-07-28T20:22:13.215Z,100392.00
2018-07-28T20:24:42.676Z,100388.00
2018-07-28T20:27:12.040Z,100386.00
2018-07-28T20:29:41.189Z,100396.00
2018-07-28T20:32:15.714Z,100401.00
2018-07-28T20:34:45.251Z,100408.00
2018-07-28T20:37:14.831Z,100424.00
2018-07-28T20:39:44.223Z,100429.00
2018-07-28T20:42:13.762Z,100429.00
2018-07-28T20:44:43.261Z,100431.00
2018-07-28T20:47:12.879Z,100438.00
2018-07-28T20:49:43.035Z,100434.00
2018-07-28T20:52:12.347Z,100455.00
2018-07-28T20:54:41.646Z,100452.00
2018-07-28T20:57:11.211Z,100452.00
2018-07-28T20:59:41.309Z,100464.00
2018-07-28T21:02:10.471Z,100468.00
2018-07-28T21:04:39.739Z,100465.00
2018-07-28T21:07:08.721Z,100477.00
2018-07-28T21:09:38.029Z,100468.00
2018-07-28T21:12:07.376Z,100468.00
2018-07-28T21:14:36.583Z,100476.00
2018-07-28T21:17:06.092Z,100478.00
2018-07-28T21:19:35.375Z,100476.00
2018-07-28T21:22:04.664Z,100483.00
2018-07-28T21:24:33.884Z,100482.00
2018-07-28T21:27:03.270Z,100491.00
2018-07-28T21:29:32.472Z,100509.00
2018-07-28T21:32:01.663Z,100510.00
2018-07-28T21:34:30.929Z,100510.00
2018-07-28T21:37:00.197Z,100506.00
2018-07-28T21:39:29.418Z,100511.00
2018-07-28T21:41:58.649Z,100521.00
2018-07-28T21:44:27.917Z,100518.00
2018-07-28T21:46:57.286Z,100525.00
2018-07-28T21:49:26.657Z,100527.00
2018-07-28T21:51:56.117Z,100531.00
2018-07-28T21:54:25.458Z,100530.00
2018-07-28T21:56:54.791Z,100538.00
2018-07-28T21:59:24.369Z,100543.00
2018-07-28T22:01:53.892Z,100539.00
2018-07-28T22:04:29.665Z,100538.00
2018-07-28T22:06:59.163Z,100534.00
2018-07-28T22:09:28.630Z,100540.00
2018-07-28T22:11:58.258Z,100533.00
2018-07-28T22:14:27.931Z,100552.00
2018-07-28T22:16:57.494Z,100442.00
2018-07-28T22:19:27.104Z,100558.00
2018-07-28T22:21:56.502Z,100558.00
2018-07-28T22:24:25.953Z,100566.00
2018-07-28T22:26:55.270Z,100572.00
2018-07-28T22:29:24.615Z,100575.00
2018-07-28T22:31:53.782Z,100582.00
2018-07-28T22:34:23.034Z,100589.00
2018-07-28T22:36:52.103Z,100601.00
2018-07-28T22:39:21.357Z,100598.00
2018-07-28T22:41:50.448Z,100609.00
2018-07-28T22:44:19.639Z,100618.00
2018-07-28T22:46:49.054Z,100627.00
2018-07-28T22:49:18.510Z,100629.00
2018-07-28T22:51:47.698Z,100638.00
2018-07-28T22:54:17.027Z,100633.00
2018-07-28T22:56:46.205Z,100641.00
2018-07-28T22:59:15.326Z,100643.00
2018-07-28T23:01:44.585Z,100637.00
2018-07-28T23:04:13.789Z,100633.00
2018-07-28T23:06:42.960Z,100635.00
2018-07-28T23:09:13.289Z,100629.00
2018-07-28T23:11:42.553Z,100622.00
2018-07-28T23:14:11.814Z,100621.00
2018-07-28T23:16:41.241Z,100626.00
2018-07-28T23:19:10.755Z,100618.00
2018-07-28T23:21:40.186Z,100616.00
2018-07-28T23:24:09.447Z,100621.00
2018-07-28T23:26:38.720Z,100616.00
2018-07-28T23:29:08.330Z,100619.00
2018-07-28T23:31:37.696Z,100619.00
2018-07-28T23:34:06.926Z,100612.00
2018-07-28T23:36:36.114Z,100616.00
2018-07-28T23:39:08.642Z,100612.00
2018-07-28T23:41:38.464Z,100612.00
2018-07-28T23:44:08.342Z,100606.00
2018-07-28T23:46:37.562Z,100598.00
2018-07-28T23:49:06.758Z,100605.00
2018-07-28T23:51:35.855Z,100604.00
2018-07-28T23:54:04.962Z,100601.00
2018-07-28T23:56:34.149Z,100608.00
2018-07-28T23:59:03.229Z,100608.00
